Time;durP1;ratioP1;P1;durP2;ratioP2;P2;SDS_P1;SDS_P2;PMS_P1;PMS_P2;Temp;Humidity;BMP_temperature;BMP_pressure;BME280_temperature;BME280_humidity;BME280_pressure;Samples;Min_cycle;Max_cycle;Signal;HPM_P1;HPM_P2
2023/09/28 00:02:58;;;;;;;230.20;104.50;;;;;;;17.09;67.83;100367.32;109079;1257;68663;-54
2023/09/28 00:05:25;;;;;;;266.00;120.50;;;;;;;17.04;68.21;100365.92;109047;1257;72473;-55
2023/09/28 00:07:51;;;;;;;257.70;119.70;;;;;;;17.05;67.84;100363.81;109095;1258;61654;-54
2023/09/28 00:10:18;;;;;;;289.90;136.20;;;;;;;17.03;67.67;100361.96;109093;1257;59991;-54
2023/09/28 00:12:49;;;;;;;281.60;123.00;;;;;;;17.02;67.63;100361.55;109651;1251;74533;-55
2023/09/28 00:15:16;;;;;;;295.40;133.30;;;;;;;16.98;67.79;100358.51;109743;1251;67487;-55
2023/09/28 00:17:42;;;;;;;262.10;123.00;;;;;;;17.03;67.50;100357.79;109589;1251;72478;-54
2023/09/28 00:20:17;;;;;;;278.00;124.20;;;;;;;17.07;67.09;100362.61;109538;1251;61036;-54
2023/09/28 00:22:45;;;;;;;261.00;121.60;;;;;;;17.05;66.91;100357.67;109674;1253;60269;-54
2023/09/28 00:25:11;;;;;;;264.50;117.70;;;;;;;17.03;67.44;100355.80;109581;1254;74506;-54
2023/09/28 00:27:39;;;;;;;264.00;127.20;;;;;;;17.03;67.34;100356.22;109574;1252;68606;-54
2023/09/28 00:30:09;;;;;;;246.90;113.10;;;;;;;16.99;67.59;100362.04;109535;1252;71320;-54
2023/09/28 00:32:36;;;;;;;213.20;104.20;;;;;;;16.98;67.61;100361.65;109547;1253;59523;-54
2023/09/28 00:35:06;;;;;;;219.40;102.70;;;;;;;16.99;67.39;100359.76;109561;1253;59962;-54
2023/09/28 00:37:32;;;;;;;227.70;98.10;;;;;;;16.96;67.52;100363.73;109544;1254;74514;-54
2023/09/28 00:39:59;;;;;;;216.40;104.60;;;;;;;16.89;67.76;100366.41;109548;1254;68749;-54
2023/09/28 00:42:28;;;;;;;218.00;102.80;;;;;;;16.85;67.81;100362.24;109408;1253;70463;-54
2023/09/28 00:44:54;;;;;;;242.60;109.60;;;;;;;16.70;68.57;100366.27;109546;1251;60408;-56
2023/09/28 00:47:21;;;;;;;236.20;106.90;;;;;;;16.78;68.26;100365.29;109586;1254;59988;-54
2023/09/28 00:49:51;;;;;;;218.00;100.00;;;;;;;16.73;68.73;100361.00;109552;1252;73849;-54
2023/09/28 00:52:18;;;;;;;220.30;101.00;;;;;;;16.73;68.99;100363.44;109587;1252;68654;-55
2023/09/28 00:54:45;;;;;;;211.00;100.50;;;;;;;16.74;68.89;100359.10;109550;1254;71284;-54
2023/09/28 00:57:12;;;;;;;215.70;102.10;;;;;;;16.73;68.82;100364.68;109182;1254;61727;-54
2023/09/28 00:59:38;;;;;;;219.00;105.10;;;;;;;16.71;68.40;100360.36;109549;1254;58997;-54
2023/09/28 01:02:08;;;;;;;214.90;101.00;;;;;;;16.69;68.01;100361.33;109539;1253;74735;-54
2023/09/28 01:04:38;;;;;;;230.30;99.30;;;;;;;16.69;67.84;100363.17;109409;1253;68545;-54
2023/09/28 01:07:05;;;;;;;209.70;98.60;;;;;;;16.73;67.69;100366.54;109399;1254;71585;-54
2023/09/28 01:09:32;;;;;;;214.40;102.10;;;;;;;16.69;67.80;100363.60;109587;1253;60676;-54
2023/09/28 01:11:59;;;;;;;228.30;103.00;;;;;;;16.67;67.68;100362.09;109446;1254;59178;-53
2023/09/28 01:14:27;;;;;;;222.20;99.80;;;;;;;16.63;67.68;100360.42;109602;1253;74669;-54
2023/09/28 01:16:53;;;;;;;226.20;99.40;;;;;;;16.60;67.78;100360.86;109534;1253;68565;-57
2023/09/28 01:19:20;;;;;;;176.60;87.50;;;;;;;16.63;68.18;100362.33;109499;1253;71476;-54
2023/09/28 01:21:47;;;;;;;186.40;87.50;;;;;;;16.53;68.85;100360.51;109551;1254;61739;-54
2023/09/28 01:24:14;;;;;;;196.20;90.00;;;;;;;16.46;68.97;100363.60;109532;1254;60273;-54
2023/09/28 01:26:41;;;;;;;185.30;85.60;;;;;;;16.48;68.59;100366.79;109377;1252;73296;-54
2023/09/28 01:29:10;;;;;;;174.00;80.00;;;;;;;16.53;68.13;100368.25;109564;1252;68394;-54
2023/09/28 01:31:36;;;;;;;161.30;75.30;;;;;;;16.49;68.18;100366.04;109538;1253;72313;-53
2023/09/28 01:34:03;;;;;;;179.60;82.10;;;;;;;16.46;68.31;100367.23;109553;1252;61753;-54
2023/09/28 01:36:30;;;;;;;158.00;72.40;;;;;;;16.50;67.69;100365.27;109561;1254;60266;-54
2023/09/28 01:38:58;;;;;;;148.30;69.30;;;;;;;16.48;67.58;100362.17;109558;1253;74678;-54
2023/09/28 01:41:25;;;;;;;145.20;68.00;;;;;;;16.43;67.60;100364.04;109442;1251;67563;-56
2023/09/28 01:43:52;;;;;;;139.70;66.00;;;;;;;16.37;67.85;100365.77;109541;1251;72536;-53
2023/09/28 01:46:19;;;;;;;107.50;53.60;;;;;;;16.38;67.86;100360.20;109308;1252;61665;-54
2023/09/28 01:48:46;;;;;;;103.60;46.40;;;;;;;16.41;67.79;100361.70;109541;1254;58988;-54
2023/09/28 01:51:12;;;;;;;104.30;48.20;;;;;;;16.40;68.36;100359.86;109509;1252;73528;-54
2023/09/28 01:53:39;;;;;;;106.00;48.30;;;;;;;16.40;69.09;100360.46;109586;1252;68542;-53
2023/09/28 01:56:05;;;;;;;96.00;48.70;;;;;;;16.38;69.58;100362.35;109527;1252;71467;-54
2023/09/28 01:58:32;;;;;;;77.20;40.00;;;;;;;16.24;71.20;100362.36;109558;1253;60402;-54
2023/09/28 02:00:59;;;;;;;66.30;35.20;;;;;;;16.26;71.34;100365.45;109604;1254;58946;-54
2023/09/28 02:03:26;;;;;;;76.10;40.60;;;;;;;16.33;70.73;100361.44;109587;1253;74736;-54
2023/09/28 02:05:53;;;;;;;71.30;34.90;;;;;;;16.35;70.57;100359.65;109519;1254;67137;-54
2023/09/28 02:08:20;;;;;;;67.70;36.30;;;;;;;16.39;70.76;100363.65;109558;1253;72506;-54
2023/09/28 02:10:46;;;;;;;66.30;34.10;;;;;;;16.38;70.66;100364.85;109295;1252;60446;-53
2023/09/28 02:13:13;;;;;;;57.10;31.50;;;;;;;16.32;71.59;100366.54;109498;1253;59171;-54
2023/09/28 02:15:43;;;;;;;81.80;37.70;;;;;;;16.38;72.13;100366.64;109519;1253;74472;-53
2023/09/28 02:18:10;;;;;;;74.10;38.90;;;;;;;16.35;72.27;100366.75;109551;1253;68463;-54
2023/09/28 02:20:37;;;;;;;90.60;43.30;;;;;;;16.39;71.85;100364.41;109489;1254;71208;-54
2023/09/28 02:23:09;;;;;;;92.40;44.90;;;;;;;16.31;72.21;100363.13;109618;1251;60543;-54
2023/09/28 02:25:35;;;;;;;98.60;41.20;;;;;;;16.35;72.10;100365.51;109709;1251;60368;-54
2023/09/28 02:28:02;;;;;;;84.90;41.20;;;;;;;16.38;71.07;100362.09;109714;1250;73366;-54
2023/09/28 02:30:29;;;;;;;83.10;39.90;;;;;;;16.28;71.55;100359.77;109621;1250;68605;-54
2023/09/28 02:32:56;;;;;;;86.80;41.10;;;;;;;16.31;71.52;100358.46;109691;1251;72701;-54
2023/09/28 02:35:24;;;;;;;96.00;42.00;;;;;;;16.32;71.51;100360.58;109699;1251;61679;-54
2023/09/28 02:37:51;;;;;;;91.80;43.30;;;;;;;16.31;71.23;100362.03;109724;1251;59085;-54
2023/09/28 02:40:19;;;;;;;96.00;46.10;;;;;;;16.35;70.53;100363.77;109738;1250;73726;-54
2023/09/28 02:42:49;;;;;;;90.90;43.60;;;;;;;16.36;70.36;100363.83;109680;1250;68496;-54
2023/09/28 02:45:16;;;;;;;110.30;46.30;;;;;;;16.27;70.45;100366.86;109452;1251;72527;-54
2023/09/28 02:47:44;;;;;;;125.70;52.80;;;;;;;16.17;71.10;100365.35;109747;1250;60370;-54
2023/09/28 02:50:12;;;;;;;109.70;52.00;;;;;;;16.21;71.14;100366.77;109749;1251;60113;-53
2023/09/28 02:52:40;;;;;;;109.30;48.60;;;;;;;16.22;71.77;100367.73;109733;1250;74704;-54
2023/09/28 02:55:08;;;;;;;100.20;49.40;;;;;;;16.21;72.39;100372.98;109697;1251;68437;-54
2023/09/28 02:57:35;;;;;;;94.60;46.40;;;;;;;16.21;72.70;100369.58;109740;1251;72500;-53
2023/09/28 03:00:12;;;;;;;92.30;43.80;;;;;;;16.34;72.29;100367.02;109657;1251;60850;-54
2023/09/28 03:02:38;;;;;;;85.50;42.10;;;;;;;16.40;72.17;100366.63;109624;1251;60204;-54
2023/09/28 03:05:07;;;;;;;56.90;31.60;;;;;;;16.36;72.16;100369.34;109742;1250;74726;-54
2023/09/28 03:07:34;;;;;;;67.00;32.20;;;;;;;16.37;71.52;100372.98;109341;1251;68925;-53
2023/09/28 03:10:03;;;;;;;63.10;29.80;;;;;;;16.35;71.03;100375.52;109568;1251;72461;-53
2023/09/28 03:12:30;;;;;;;54.20;30.20;;;;;;;16.34;70.74;100376.89;109764;1251;62043;-54
2023/09/28 03:14:57;;;;;;;62.40;29.70;;;;;;;16.29;70.84;100375.85;109745;1251;59053;-53
2023/09/28 03:17:24;;;;;;;68.60;35.70;;;;;;;16.24;71.33;100377.91;109711;1251;73300;-54
2023/09/28 03:19:51;;;;;;;82.30;40.10;;;;;;;16.18;71.34;100377.75;109400;1251;67469;-54
2023/09/28 03:22:19;;;;;;;69.10;37.00;;;;;;;16.17;70.87;100378.19;109257;1254;71508;-53
2023/09/28 03:24:47;;;;;;;70.70;34.20;;;;;;;16.15;70.84;100378.79;109580;1251;60466;-53
2023/09/28 03:27:13;;;;;;;63.20;31.50;;;;;;;16.13;70.97;100376.98;109495;1252;60011;-53
2023/09/28 03:29:41;;;;;;;63.90;33.60;;;;;;;16.19;70.74;100378.29;109539;1251;73256;-53
2023/09/28 03:32:08;;;;;;;69.70;33.30;;;;;;;16.02;71.56;100378.34;109554;1251;68819;-54
2023/09/28 03:34:36;;;;;;;69.90;35.30;;;;;;;15.96;72.63;100375.90;109445;1252;72495;-53
2023/09/28 03:37:04;;;;;;;77.80;39.50;;;;;;;15.93;73.60;100374.48;109504;1252;60538;-53
2023/09/28 03:39:31;;;;;;;79.80;35.10;;;;;;;16.00;73.14;100377.46;109474;1252;60163;-53
2023/09/28 03:41:57;;;;;;;74.50;35.00;;;;;;;16.06;72.76;100379.70;109479;1252;74361;-54
2023/09/28 03:44:24;;;;;;;68.60;31.40;;;;;;;16.11;72.45;100375.53;109517;1252;67399;-53
2023/09/28 03:46:51;;;;;;;62.20;33.80;;;;;;;16.13;71.89;100384.14;109527;1253;72366;-54
2023/09/28 03:49:18;;;;;;;82.30;35.50;;;;;;;16.14;71.90;100382.09;109505;1252;60665;-54
2023/09/28 03:51:44;;;;;;;86.70;38.40;;;;;;;16.14;71.71;100383.66;109499;1253;60121;-53
2023/09/28 03:54:11;;;;;;;82.60;40.30;;;;;;;16.16;71.36;100384.79;109515;1252;72643;-54
2023/09/28 03:56:38;;;;;;;90.70;40.60;;;;;;;16.17;71.51;100387.45;109527;1253;67244;-53
2023/09/28 03:59:05;;;;;;;86.10;39.50;;;;;;;16.12;71.72;100390.15;109527;1252;70163;-53
2023/09/28 04:01:32;;;;;;;86.50;41.50;;;;;;;16.05;71.92;100391.23;109548;1253;61731;-54
2023/09/28 04:03:59;;;;;;;126.40;49.60;;;;;;;16.06;72.02;100388.41;109280;1253;59077;-54
2023/09/28 04:06:25;;;;;;;110.00;50.20;;;;;;;16.01;72.84;100390.09;109395;1253;74139;-53
2023/09/28 04:08:52;;;;;;;119.30;51.60;;;;;;;16.09;72.51;100392.80;109543;1252;67421;-54
2023/09/28 04:11:19;;;;;;;124.80;53.20;;;;;;;16.10;72.89;100394.21;109535;1252;71174;-54
2023/09/28 04:13:46;;;;;;;141.20;59.60;;;;;;;16.14;72.77;100394.65;109585;1252;61787;-53
2023/09/28 04:16:13;;;;;;;144.40;61.50;;;;;;;16.12;73.23;100394.86;109528;1252;59983;-54
2023/09/28 04:18:39;;;;;;;161.80;70.70;;;;;;;16.14;73.50;100397.30;109386;1253;74526;-53
2023/09/28 04:21:06;;;;;;;135.50;62.20;;;;;;;16.09;74.21;100392.32;109556;1251;67189;-54
2023/09/28 04:23:33;;;;;;;138.50;60.50;;;;;;;16.09;74.34;100390.52;109728;1250;71597;-53
2023/09/28 04:25:59;;;;;;;159.80;68.30;;;;;;;16.18;74.41;100397.31;109353;1250;60864;-54
2023/09/28 04:28:26;;;;;;;170.70;67.70;;;;;;;16.25;74.38;100397.30;109685;1250;58960;-52
2023/09/28 04:30:53;;;;;;;139.30;60.20;;;;;;;16.36;74.37;100397.36;109568;1250;129769;-55
2023/09/28 04:33:19;;;;;;;93.10;45.10;;;;;;;16.42;74.88;100395.30;109756;1250;67378;-55
2023/09/28 04:35:46;;;;;;;102.40;46.40;;;;;;;16.62;74.76;100392.30;109702;1250;72735;-55
2023/09/28 04:38:13;;;;;;;87.60;38.80;;;;;;;16.95;74.42;100392.31;109779;1250;61009;-54
2023/09/28 04:40:40;;;;;;;85.60;43.50;;;;;;;17.38;73.60;100389.42;109734;1250;60085;-55
2023/09/28 04:43:08;;;;;;;81.70;40.50;;;;;;;17.85;71.52;100391.69;109723;1250;73133;-54
2023/09/28 04:45:34;;;;;;;65.50;34.70;;;;;;;18.26;68.94;100392.21;109686;1250;67418;-55
2023/09/28 04:48:01;;;;;;;66.20;31.60;;;;;;;18.58;67.19;100390.30;109434;1251;71749;-53
2023/09/28 04:50:28;;;;;;;65.80;29.50;;;;;;;18.90;65.58;100391.64;109760;1250;61175;-54
2023/09/28 04:52:55;;;;;;;62.20;30.40;;;;;;;19.28;63.75;100393.48;109690;1251;58919;-54
2023/09/28 04:55:23;;;;;;;49.60;25.50;;;;;;;19.68;62.08;100397.61;109712;1250;73235;-54
2023/09/28 04:57:52;;;;;;;61.80;26.20;;;;;;;20.04;61.08;100397.36;109732;1250;67874;-53
2023/09/28 05:00:20;;;;;;;45.90;22.60;;;;;;;20.40;60.12;100400.80;109725;1250;72319;-55
2023/09/28 05:02:47;;;;;;;40.10;19.50;;;;;;;20.74;59.22;100407.27;109749;1250;60625;-53
2023/09/28 05:05:15;;;;;;;39.90;20.40;;;;;;;21.05;58.20;100405.65;109761;1250;58947;-53
2023/09/28 05:07:42;;;;;;;32.20;17.80;;;;;;;21.59;57.08;100412.82;109714;1250;74572;-54
2023/09/28 05:10:09;;;;;;;28.80;15.40;;;;;;;22.01;55.32;100411.33;109735;1250;67611;-54
2023/09/28 05:12:35;;;;;;;34.00;17.10;;;;;;;22.25;53.69;100413.20;109700;1250;72584;-54
2023/09/28 05:15:03;;;;;;;33.60;13.60;;;;;;;22.53;52.72;100415.11;109713;1250;61678;-55
2023/09/28 05:17:31;;;;;;;26.90;16.10;;;;;;;22.66;51.01;100421.29;109682;1250;58958;-54
2023/09/28 05:19:58;;;;;;;38.90;14.80;;;;;;;22.99;49.93;100421.07;109583;1251;74381;-55
2023/09/28 05:22:26;;;;;;;33.30;15.30;;;;;;;23.28;49.91;100424.52;109655;1250;68589;-54
2023/09/28 05:24:53;;;;;;;31.60;14.10;;;;;;;23.55;48.88;100424.38;109760;1250;72448;-55
2023/09/28 05:27:20;;;;;;;24.00;12.20;;;;;;;23.71;47.03;100427.52;109731;1250;60600;-55
2023/09/28 05:29:47;;;;;;;28.30;12.80;;;;;;;23.70;46.26;100425.58;109748;1250;59060;-54
2023/09/28 05:32:14;;;;;;;22.60;11.50;;;;;;;23.79;46.00;100430.71;109783;1250;74653;-54
2023/09/28 05:34:40;;;;;;;18.00;11.10;;;;;;;23.96;45.96;100431.97;109454;1251;68794;-53
2023/09/28 05:37:07;;;;;;;18.90;10.80;;;;;;;24.00;45.49;100436.37;109577;1251;72578;-53
2023/09/28 05:39:34;;;;;;;29.70;11.70;;;;;;;23.65;45.80;100429.86;109734;1250;61907;-53
2023/09/28 05:42:01;;;;;;;25.20;10.80;;;;;;;23.27;46.47;100433.47;109748;1250;60102;-54
2023/09/28 05:44:29;;;;;;;19.20;11.50;;;;;;;23.50;46.46;100432.63;109735;1250;73218;-54
2023/09/28 05:46:56;;;;;;;23.90;12.10;;;;;;;24.08;45.22;100441.04;109720;1250;67204;-53
2023/09/28 05:49:22;;;;;;;24.30;12.40;;;;;;;24.25;44.32;100442.19;109706;1250;72624;-54
2023/09/28 05:51:49;;;;;;;17.60;11.10;;;;;;;24.42;44.02;100441.61;109699;1250;60948;-54
2023/09/28 05:54:16;;;;;;;16.80;11.40;;;;;;;24.71;43.27;100445.85;109744;1250;59032;-53
2023/09/28 05:56:44;;;;;;;19.80;11.50;;;;;;;24.92;42.58;100441.46;109362;1250;72692;-54
2023/09/28 05:59:11;;;;;;;;;;;;;;;24.99;42.37;100441.46;109751;1250;67208;-54
2023/09/28 06:01:37;;;;;;;17.70;10.10;;;;;;;24.92;42.17;100443.88;109773;1250;72554;-53
2023/09/28 06:04:05;;;;;;;25.70;10.20;;;;;;;25.05;42.08;100444.36;109743;1250;61768;-54
2023/09/28 06:06:32;;;;;;;;;;;;;;;25.41;41.73;100450.64;109477;1256;59167;-54
2023/09/28 06:08:59;;;;;;;18.70;10.30;;;;;;;25.36;41.11;100451.46;109731;1250;73309;-53
2023/09/28 06:11:26;;;;;;;18.90;10.50;;;;;;;25.29;41.16;100450.60;109721;1250;67185;-53
2023/09/28 06:13:52;;;;;;;18.20;9.90;;;;;;;25.21;41.32;100452.35;109733;1250;71151;-55
2023/09/28 06:16:38;;;;;;;22.40;12.40;;;;;;;25.24;41.37;100458.90;109683;1250;60086;-54
2023/09/28 06:19:04;;;;;;;24.90;12.40;;;;;;;25.23;41.25;100459.10;109524;1252;60093;-54
2023/09/28 06:21:31;;;;;;;15.80;12.40;;;;;;;25.45;40.75;100464.20;109580;1251;73537;-54
2023/09/28 06:23:57;;;;;;;17.60;11.90;;;;;;;25.60;40.65;100464.66;109714;1250;68506;-55
2023/09/28 06:26:24;;;;;;;15.30;10.30;;;;;;;25.87;40.39;100460.51;109515;1251;72496;-55
2023/09/28 06:29:08;;;;;;;12.30;9.00;;;;;;;26.10;39.79;100460.44;109754;1250;59070;-54
2023/09/28 06:31:35;;;;;;;12.30;8.20;;;;;;;25.98;39.97;100458.67;109713;1250;58864;-54
2023/09/28 06:34:01;;;;;;;15.50;8.90;;;;;;;25.75;40.45;100464.13;109751;1250;72900;-55
2023/09/28 06:36:29;;;;;;;16.00;9.40;;;;;;;25.58;40.83;100468.09;109757;1250;67392;-53
2023/09/28 06:38:59;;;;;;;14.00;10.10;;;;;;;26.07;40.68;100472.75;109508;1251;71536;-53
2023/09/28 06:41:26;;;;;;;14.00;9.80;;;;;;;26.52;40.00;100473.67;109707;1250;59178;-55
2023/09/28 06:43:53;;;;;;;12.80;10.10;;;;;;;26.51;39.79;100472.80;109786;1250;58871;-54
2023/09/28 06:46:21;;;;;;;15.20;10.20;;;;;;;26.67;39.69;100481.48;109697;1250;73133;-55
2023/09/28 06:48:49;;;;;;;;;;;;;;;26.92;39.57;100481.06;109756;1250;68561;-56
2023/09/28 06:51:16;;;;;;;20.00;9.60;;;;;;;27.31;38.90;100483.42;109744;1250;72473;-56
2023/09/28 06:53:42;;;;;;;16.00;9.30;;;;;;;27.55;38.82;100481.02;109474;1251;60136;-55
2023/09/28 06:56:09;;;;;;;13.90;9.20;;;;;;;27.62;38.28;100480.07;109714;1250;60106;-55
2023/09/28 06:58:41;;;;;;;12.00;9.20;;;;;;;27.67;38.30;100481.02;109671;1250;73356;-55
2023/09/28 07:01:08;;;;;;;22.40;10.00;;;;;;;28.09;38.12;100481.98;109681;1250;68526;-54
2023/09/28 07:03:34;;;;;;;11.90;7.80;;;;;;;28.26;37.70;100484.12;109693;1250;71598;-54
2023/09/28 07:06:01;;;;;;;12.70;8.50;;;;;;;28.25;37.55;100480.86;109706;1251;60298;-54
2023/09/28 07:08:30;;;;;;;17.10;11.60;;;;;;;28.52;37.20;100488.27;109684;1250;60831;-54
2023/09/28 07:10:58;;;;;;;15.10;9.90;;;;;;;28.99;36.69;100485.95;109689;1250;74687;-55
2023/09/28 07:13:24;;;;;;;14.50;9.10;;;;;;;29.23;36.04;100487.92;109735;1250;67238;-56
2023/09/28 07:15:51;;;;;;;13.80;7.70;;;;;;;29.50;35.60;100489.37;109718;1250;72794;-55
2023/09/28 07:18:18;;;;;;;14.30;8.10;;;;;;;29.48;35.05;100484.02;109665;1250;58942;-54
2023/09/28 07:20:46;;;;;;;12.00;7.60;;;;;;;29.31;35.22;100485.77;109675;1251;60240;-54
2023/09/28 07:23:12;;;;;;;13.10;7.60;;;;;;;29.04;35.87;100484.83;109713;1250;74929;-54
2023/09/28 07:25:40;;;;;;;9.70;7.30;;;;;;;29.22;35.49;100488.77;109682;1250;68550;-54
2023/09/28 07:28:07;;;;;;;14.90;7.70;;;;;;;29.30;35.80;100486.91;109689;1251;72452;-55
2023/09/28 07:30:35;;;;;;;9.20;6.90;;;;;;;29.52;36.04;100484.67;109683;1250;60375;-54
2023/09/28 07:33:03;;;;;;;19.10;9.40;;;;;;;29.46;35.87;100484.30;109726;1250;60149;-55
2023/09/28 07:35:30;;;;;;;21.30;10.40;;;;;;;29.22;36.26;100484.75;109697;1250;73485;-54
2023/09/28 07:37:57;;;;;;;14.60;9.20;;;;;;;29.68;35.56;100483.62;109735;1250;67141;-54
2023/09/28 07:40:25;;;;;;;14.50;8.10;;;;;;;29.81;35.48;100482.05;109752;1250;71314;-55
2023/09/28 07:43:12;;;;;;;15.40;8.40;;;;;;;29.92;35.21;100483.69;109306;1256;59174;-55
2023/09/28 07:45:40;;;;;;;14.80;8.40;;;;;;;29.75;35.32;100479.78;109076;1254;60292;-54
2023/09/28 07:48:07;;;;;;;17.30;10.00;;;;;;;29.73;35.56;100481.14;109445;1254;74515;-54
2023/09/28 07:50:34;;;;;;;22.20;8.80;;;;;;;30.13;35.13;100484.23;109373;1254;67784;-56
2023/09/28 07:53:01;;;;;;;15.80;7.80;;;;;;;30.58;34.60;100486.09;109091;1254;71457;-55
2023/09/28 07:55:28;;;;;;;11.50;8.20;;;;;;;30.75;33.64;100488.33;109456;1254;59569;-55
2023/09/28 07:57:55;;;;;;;12.50;7.10;;;;;;;31.05;33.34;100494.48;109373;1254;60331;-56
2023/09/28 08:00:35;;;;;;;9.40;7.10;;;;;;;31.41;32.75;100493.34;109489;1251;65878;-56
2023/09/28 08:03:01;;;;;;;8.60;6.90;;;;;;;31.51;32.51;100494.05;109424;1250;66901;-55
2023/09/28 08:05:28;;;;;;;9.60;6.90;;;;;;;31.42;32.74;100490.11;109732;1250;63999;-55
2023/09/28 08:07:55;;;;;;;11.30;6.10;;;;;;;31.30;32.55;100490.70;109704;1250;60146;-56
2023/09/28 08:10:40;;;;;;;15.90;8.50;;;;;;;31.60;32.32;100486.01;109730;1250;59435;-56
2023/09/28 08:13:07;;;;;;;9.30;6.90;;;;;;;31.81;31.82;100488.64;109776;1250;65943;-56
2023/09/28 08:15:34;;;;;;;13.60;7.10;;;;;;;31.88;31.20;100490.30;109703;1250;59015;-55
2023/09/28 08:18:03;;;;;;;13.40;7.30;;;;;;;31.66;31.41;100487.13;109687;1251;65249;-55
2023/09/28 08:20:33;;;;;;;11.40;6.70;;;;;;;31.70;31.22;100485.37;109632;1251;58969;-56
2023/09/28 08:23:00;;;;;;;15.10;7.60;;;;;;;31.92;31.18;100486.09;109740;1250;59080;-55
2023/09/28 08:25:27;;;;;;;13.20;6.80;;;;;;;32.20;30.66;100480.58;109810;1250;66198;-56
2023/09/28 08:27:53;;;;;;;13.50;7.30;;;;;;;32.12;30.59;100475.80;109730;1250;59257;-55
2023/09/28 08:30:20;;;;;;;21.00;7.70;;;;;;;32.33;30.42;100474.94;109491;1251;62525;-55
2023/09/28 08:32:47;;;;;;;11.10;6.50;;;;;;;32.67;29.84;100481.76;109749;1250;58940;-54
2023/09/28 08:35:15;;;;;;;12.60;7.30;;;;;;;32.51;29.97;100476.50;109758;1250;58982;-55
2023/09/28 08:37:42;;;;;;;7.50;5.80;;;;;;;32.72;30.21;100476.09;109585;1251;67245;-54
2023/09/28 08:40:09;;;;;;;8.60;6.40;;;;;;;32.94;29.05;100476.53;109524;1251;68734;-55
2023/09/28 08:42:36;;;;;;;11.60;6.10;;;;;;;32.93;28.75;100478.83;109481;1251;63856;-56
2023/09/28 08:45:03;;;;;;;8.70;5.60;;;;;;;32.58;29.00;100474.53;109706;1250;59115;-55
2023/09/28 08:47:31;;;;;;;;;;;;;;;32.56;29.32;100474.27;109731;1250;59051;-55
2023/09/28 08:49:58;;;;;;;10.50;6.20;;;;;;;32.58;29.30;100474.90;109439;1251;64711;-55
2023/09/28 08:52:27;;;;;;;7.90;5.10;;;;;;;32.29;29.50;100472.27;109492;1250;59917;-55
2023/09/28 08:54:55;;;;;;;9.10;5.30;;;;;;;32.37;29.28;100474.03;109617;1251;64072;-55
2023/09/28 08:57:22;;;;;;;7.60;5.10;;;;;;;32.37;29.37;100470.06;109637;1251;59019;-56
2023/09/28 08:59:51;;;;;;;9.80;6.00;;;;;;;32.40;29.39;100466.61;109495;1250;59141;-56
2023/09/28 09:02:18;;;;;;;8.90;5.60;;;;;;;32.26;29.37;100464.70;109643;1251;65758;-55
2023/09/28 09:04:45;;;;;;;6.80;5.20;;;;;;;32.33;29.62;100457.63;109708;1250;68613;-55
2023/09/28 09:07:12;;;;;;;9.80;5.70;;;;;;;32.52;29.38;100456.67;109633;1250;63788;-55
2023/09/28 09:09:41;;;;;;;8.40;5.30;;;;;;;32.57;29.14;100452.05;109575;1250;59025;-55
2023/09/28 09:12:09;;;;;;;10.90;5.80;;;;;;;32.92;28.99;100453.25;109573;1250;61343;-54
2023/09/28 09:14:36;;;;;;;12.70;6.10;;;;;;;33.27;28.61;100451.88;109745;1250;65806;-55
2023/09/28 09:17:03;;;;;;;8.70;5.90;;;;;;;33.52;28.12;100451.42;109438;1251;60159;-55
2023/09/28 09:19:30;;;;;;;7.50;5.10;;;;;;;33.43;28.22;100448.02;109641;1251;63844;-55
2023/09/28 09:21:57;;;;;;;18.50;6.30;;;;;;;33.55;28.18;100447.95;109661;1250;58967;-57
2023/09/28 09:24:24;;;;;;;13.70;5.30;;;;;;;33.71;27.60;100448.84;109712;1251;59152;-55
2023/09/28 09:26:56;;;;;;;8.80;5.20;;;;;;;33.54;27.77;100446.33;109559;1251;67099;-55
2023/09/28 09:29:23;;;;;;;11.30;5.70;;;;;;;33.09;28.32;100441.64;109721;1251;67864;-54
2023/09/28 09:31:51;;;;;;;18.40;6.00;;;;;;;33.21;28.24;100435.54;109691;1250;63817;-54
2023/09/28 09:34:19;;;;;;;17.80;6.80;;;;;;;33.48;27.89;100438.11;109727;1250;59010;-54
2023/09/28 09:36:55;;;;;;;12.50;5.30;;;;;;;33.85;27.70;100438.09;109724;1250;59617;-55
2023/09/28 09:39:26;;;;;;;32.80;6.90;;;;;;;33.59;27.73;100434.02;109540;1251;66210;-55
2023/09/28 09:41:53;;;;;;;8.40;4.70;;;;;;;32.90;28.73;100429.72;109752;1250;59911;-55
2023/09/28 09:44:21;;;;;;;12.50;5.90;;;;;;;33.11;28.39;100433.39;109466;1251;64106;-55
2023/09/28 09:46:49;;;;;;;10.20;5.80;;;;;;;33.86;27.69;100434.41;109672;1250;58927;-56
2023/09/28 09:49:16;;;;;;;14.70;4.90;;;;;;;34.42;26.98;100433.36;109673;1250;59013;-55
2023/09/28 09:51:45;;;;;;;8.50;5.80;;;;;;;34.82;26.51;100432.80;109733;1250;66130;-55
2023/09/28 09:54:16;;;;;;;9.50;5.80;;;;;;;34.74;26.48;100436.05;109744;1250;60102;-55
2023/09/28 09:56:44;;;;;;;8.50;5.10;;;;;;;34.72;26.46;100431.19;109721;1251;65080;-55
2023/09/28 09:59:12;;;;;;;7.30;5.40;;;;;;;34.23;26.58;100427.97;109718;1250;59042;-55
2023/09/28 10:01:40;;;;;;;11.40;5.00;;;;;;;33.96;26.96;100426.13;109360;1251;59071;-54
2023/09/28 10:04:12;;;;;;;11.00;5.10;;;;;;;33.98;27.25;100425.08;109737;1251;65888;-55
2023/09/28 10:06:39;;;;;;;10.90;5.50;;;;;;;33.92;27.27;100422.61;109734;1251;59075;-55
2023/09/28 10:09:10;;;;;;;;;;;;;;;34.18;26.96;100422.63;109639;1251;63921;-55
2023/09/28 10:11:38;;;;;;;10.60;5.40;;;;;;;34.11;26.64;100420.15;109593;1250;58984;-56
2023/09/28 10:14:05;;;;;;;14.20;5.10;;;;;;;34.47;26.62;100425.33;109711;1250;59007;-56
2023/09/28 10:16:34;;;;;;;11.90;5.20;;;;;;;34.87;25.91;100425.06;109695;1250;65809;-56
2023/09/28 10:19:00;;;;;;;14.30;5.50;;;;;;;34.75;25.70;100424.19;109640;1251;60037;-56
2023/09/28 10:21:28;;;;;;;14.40;5.70;;;;;;;34.89;25.39;100422.52;109146;1251;64242;-56
2023/09/28 10:23:56;;;;;;;18.70;5.90;;;;;;;35.04;25.37;100422.92;109478;1252;59405;-56
2023/09/28 10:26:24;;;;;;;11.40;5.30;;;;;;;34.64;25.58;100415.65;109569;1252;59052;-56
2023/09/28 10:28:59;;;;;;;;;;;;;;;34.92;25.61;100421.23;109396;1253;65983;-56
2023/09/28 10:31:28;;;;;;;13.30;5.00;;;;;;;35.25;25.01;100417.25;109598;1253;60272;-54
2023/09/28 10:34:09;;;;;;;16.20;5.50;;;;;;;35.00;24.95;100414.29;109597;1253;65315;-55
2023/09/28 10:36:37;;;;;;;17.60;5.60;;;;;;;33.96;25.94;100408.84;109570;1253;58930;-55
2023/09/28 10:39:14;;;;;;;9.60;5.20;;;;;;;33.57;26.40;100406.36;109591;1253;58910;-53
2023/09/28 10:41:53;;;;;;;9.00;5.30;;;;;;;33.87;26.13;100403.95;109605;1252;66077;-56
2023/09/28 10:44:21;;;;;;;9.40;5.80;;;;;;;34.15;26.23;100403.90;109604;1253;60017;-56
2023/09/28 10:46:49;;;;;;;9.90;5.00;;;;;;;34.42;26.12;100399.13;109599;1251;64225;-55
2023/09/28 10:49:28;;;;;;;11.60;5.40;;;;;;;34.30;26.47;100394.48;109581;1251;58973;-55
2023/09/28 10:51:56;;;;;;;10.50;5.50;;;;;;;34.32;26.32;100390.67;109356;1251;59047;-56
2023/09/28 10:54:24;;;;;;;9.60;5.90;;;;;;;34.33;26.03;100389.64;109584;1252;66021;-55
2023/09/28 10:56:50;;;;;;;;;;;;;;;34.26;25.94;100388.84;109615;1252;59885;-55
2023/09/28 10:59:18;;;;;;;21.30;5.90;;;;;;;34.49;26.05;100390.14;109610;1252;64250;-55
2023/09/28 11:01:45;;;;;;;13.00;5.40;;;;;;;34.92;25.64;100391.05;109560;1252;59037;-55
2023/09/28 11:04:13;;;;;;;11.70;5.70;;;;;;;35.19;25.54;100387.99;109610;1253;58885;-55
2023/09/28 11:06:42;;;;;;;11.60;5.50;;;;;;;35.09;25.44;100387.67;109565;1251;66214;-55
2023/09/28 11:09:09;;;;;;;14.40;6.00;;;;;;;35.22;24.98;100384.24;109603;1251;59758;-55